sensor_id;sensor_type;location;lat;lon;timestamp;P1;durP1;ratioP1;P2;durP2;ratioP2
33413;SDS011;60055;41.884;12.534;2023-11-19T00:02:16;22.63;;;13.70;;
33413;SDS011;60055;41.884;12.534;2023-11-19T00:04:41;22.83;;;13.10;;
33413;SDS011;60055;41.884;12.534;2023-11-19T00:07:07;22.85;;;12.93;;
33413;SDS011;60055;41.884;12.534;2023-11-19T00:09:35;25.23;;;15.02;;
33413;SDS011;60055;41.884;12.534;2023-11-19T00:12:05;26.90;;;15.32;;
33413;SDS011;60055;41.884;12.534;2023-11-19T00:14:32;27.08;;;14.77;;
33413;SDS011;60055;41.884;12.534;2023-11-19T00:16:57;25.60;;;16.27;;
33413;SDS011;60055;41.884;12.534;2023-11-19T00:19:23;27.65;;;15.63;;
33413;SDS011;60055;41.884;12.534;2023-11-19T00:21:48;29.35;;;16.25;;
33413;SDS011;60055;41.884;12.534;2023-11-19T00:24:14;31.27;;;17.85;;
33413;SDS011;60055;41.884;12.534;2023-11-19T00:26:42;32.33;;;17.45;;
33413;SDS011;60055;41.884;12.534;2023-11-19T00:29:07;31.15;;;17.55;;
33413;SDS011;60055;41.884;12.534;2023-11-19T00:31:33;32.33;;;18.75;;
33413;SDS011;60055;41.884;12.534;2023-11-19T00:33:58;33.00;;;17.83;;
33413;SDS011;60055;41.884;12.534;2023-11-19T00:36:24;28.08;;;17.08;;
33413;SDS011;60055;41.884;12.534;2023-11-19T00:38:50;35.65;;;18.05;;
33413;SDS011;60055;41.884;12.534;2023-11-19T00:41:17;30.58;;;17.40;;
33413;SDS011;60055;41.884;12.534;2023-11-19T00:43:43;32.20;;;16.83;;
33413;SDS011;60055;41.884;12.534;2023-11-19T00:46:08;31.95;;;16.30;;
33413;SDS011;60055;41.884;12.534;2023-11-19T00:48:35;28.85;;;16.20;;
33413;SDS011;60055;41.884;12.534;2023-11-19T00:51:01;28.48;;;15.43;;
33413;SDS011;60055;41.884;12.534;2023-11-19T00:53:26;29.50;;;15.05;;
33413;SDS011;60055;41.884;12.534;2023-11-19T00:55:52;28.17;;;15.55;;
33413;SDS011;60055;41.884;12.534;2023-11-19T00:58:17;23.52;;;14.63;;
33413;SDS011;60055;41.884;12.534;2023-11-19T01:00:43;29.55;;;15.45;;
33413;SDS011;60055;41.884;12.534;2023-11-19T01:03:08;24.63;;;13.77;;
33413;SDS011;60055;41.884;12.534;2023-11-19T01:05:34;25.08;;;14.48;;
33413;SDS011;60055;41.884;12.534;2023-11-19T01:07:59;25.30;;;14.15;;
33413;SDS011;60055;41.884;12.534;2023-11-19T01:10:25;27.65;;;13.80;;
33413;SDS011;60055;41.884;12.534;2023-11-19T01:12:51;26.92;;;13.55;;
33413;SDS011;60055;41.884;12.534;2023-11-19T01:15:17;23.35;;;13.35;;
33413;SDS011;60055;41.884;12.534;2023-11-19T01:17:44;22.83;;;12.90;;
33413;SDS011;60055;41.884;12.534;2023-11-19T01:20:10;19.10;;;11.57;;
33413;SDS011;60055;41.884;12.534;2023-11-19T01:22:38;20.42;;;11.70;;
33413;SDS011;60055;41.884;12.534;2023-11-19T01:25:04;21.23;;;12.10;;
33413;SDS011;60055;41.884;12.534;2023-11-19T01:27:30;18.75;;;11.52;;
33413;SDS011;60055;41.884;12.534;2023-11-19T01:29:56;20.73;;;11.65;;
33413;SDS011;60055;41.884;12.534;2023-11-19T01:32:21;22.83;;;12.05;;
33413;SDS011;60055;41.884;12.534;2023-11-19T01:34:48;21.13;;;12.48;;
33413;SDS011;60055;41.884;12.534;2023-11-19T01:37:14;20.75;;;12.15;;
33413;SDS011;60055;41.884;12.534;2023-11-19T01:39:40;22.35;;;12.05;;
33413;SDS011;60055;41.884;12.534;2023-11-19T01:42:05;19.58;;;12.00;;
33413;SDS011;60055;41.884;12.534;2023-11-19T01:44:31;18.70;;;11.65;;
33413;SDS011;60055;41.884;12.534;2023-11-19T01:46:57;22.95;;;12.30;;
33413;SDS011;60055;41.884;12.534;2023-11-19T01:49:22;19.30;;;11.07;;
33413;SDS011;60055;41.884;12.534;2023-11-19T01:51:48;19.45;;;11.43;;
33413;SDS011;60055;41.884;12.534;2023-11-19T01:54:14;18.13;;;10.70;;
33413;SDS011;60055;41.884;12.534;2023-11-19T01:56:40;19.98;;;11.38;;
33413;SDS011;60055;41.884;12.534;2023-11-19T01:59:07;19.40;;;10.60;;
33413;SDS011;60055;41.884;12.534;2023-11-19T02:01:34;21.83;;;10.77;;
33413;SDS011;60055;41.884;12.534;2023-11-19T02:04:04;16.55;;;10.25;;
33413;SDS011;60055;41.884;12.534;2023-11-19T02:06:31;16.90;;;10.60;;
33413;SDS011;60055;41.884;12.534;2023-11-19T02:08:59;18.95;;;10.25;;
33413;SDS011;60055;41.884;12.534;2023-11-19T02:11:26;19.73;;;10.95;;
33413;SDS011;60055;41.884;12.534;2023-11-19T02:13:55;22.38;;;11.27;;
33413;SDS011;60055;41.884;12.534;2023-11-19T02:16:21;18.35;;;11.20;;
33413;SDS011;60055;41.884;12.534;2023-11-19T02:18:46;18.88;;;10.45;;
33413;SDS011;60055;41.884;12.534;2023-11-19T02:21:13;20.95;;;10.63;;
33413;SDS011;60055;41.884;12.534;2023-11-19T02:23:40;19.85;;;10.75;;
33413;SDS011;60055;41.884;12.534;2023-11-19T02:28:39;19.80;;;10.80;;
33413;SDS011;60055;41.884;12.534;2023-11-19T02:31:05;18.33;;;11.02;;
33413;SDS011;60055;41.884;12.534;2023-11-19T02:33:34;18.52;;;10.52;;
33413;SDS011;60055;41.884;12.534;2023-11-19T02:36:01;17.23;;;10.38;;
33413;SDS011;60055;41.884;12.534;2023-11-19T02:38:28;21.20;;;11.40;;
33413;SDS011;60055;41.884;12.534;2023-11-19T02:40:54;25.55;;;11.75;;
33413;SDS011;60055;41.884;12.534;2023-11-19T02:43:19;19.15;;;10.68;;
33413;SDS011;60055;41.884;12.534;2023-11-19T02:45:44;16.80;;;9.95;;
33413;SDS011;60055;41.884;12.534;2023-11-19T02:48:11;18.42;;;10.45;;
33413;SDS011;60055;41.884;12.534;2023-11-19T02:50:36;20.92;;;9.27;;
33413;SDS011;60055;41.884;12.534;2023-11-19T02:53:01;16.55;;;9.38;;
33413;SDS011;60055;41.884;12.534;2023-11-19T02:55:27;19.80;;;10.00;;
33413;SDS011;60055;41.884;12.534;2023-11-19T02:57:55;24.67;;;10.13;;
33413;SDS011;60055;41.884;12.534;2023-11-19T03:00:24;20.17;;;10.23;;
33413;SDS011;60055;41.884;12.534;2023-11-19T03:02:50;20.17;;;9.80;;
33413;SDS011;60055;41.884;12.534;2023-11-19T03:05:30;18.02;;;10.05;;
33413;SDS011;60055;41.884;12.534;2023-11-19T03:07:56;22.48;;;9.88;;
33413;SDS011;60055;41.884;12.534;2023-11-19T03:10:22;17.15;;;9.15;;
33413;SDS011;60055;41.884;12.534;2023-11-19T03:12:48;15.80;;;9.02;;
33413;SDS011;60055;41.884;12.534;2023-11-19T03:15:14;17.52;;;9.23;;
33413;SDS011;60055;41.884;12.534;2023-11-19T03:17:41;21.42;;;9.23;;
33413;SDS011;60055;41.884;12.534;2023-11-19T03:20:08;15.75;;;8.73;;
33413;SDS011;60055;41.884;12.534;2023-11-19T03:22:38;18.63;;;8.27;;
33413;SDS011;60055;41.884;12.534;2023-11-19T03:25:04;18.30;;;8.65;;
33413;SDS011;60055;41.884;12.534;2023-11-19T03:27:29;16.63;;;7.85;;
33413;SDS011;60055;41.884;12.534;2023-11-19T03:29:55;13.80;;;8.40;;
33413;SDS011;60055;41.884;12.534;2023-11-19T03:32:20;15.52;;;7.93;;
33413;SDS011;60055;41.884;12.534;2023-11-19T03:34:46;15.38;;;8.05;;
33413;SDS011;60055;41.884;12.534;2023-11-19T03:37:11;17.77;;;8.07;;
33413;SDS011;60055;41.884;12.534;2023-11-19T03:39:37;17.33;;;7.97;;
33413;SDS011;60055;41.884;12.534;2023-11-19T03:42:03;15.10;;;7.93;;
33413;SDS011;60055;41.884;12.534;2023-11-19T03:44:28;17.30;;;8.50;;
33413;SDS011;60055;41.884;12.534;2023-11-19T03:46:54;15.02;;;8.57;;
33413;SDS011;60055;41.884;12.534;2023-11-19T03:49:19;14.57;;;8.15;;
33413;SDS011;60055;41.884;12.534;2023-11-19T03:51:45;17.17;;;8.35;;
33413;SDS011;60055;41.884;12.534;2023-11-19T03:54:10;14.00;;;7.93;;
33413;SDS011;60055;41.884;12.534;2023-11-19T03:56:36;14.30;;;7.97;;
33413;SDS011;60055;41.884;12.534;2023-11-19T03:59:02;15.85;;;8.55;;
33413;SDS011;60055;41.884;12.534;2023-11-19T04:01:28;14.95;;;8.07;;
33413;SDS011;60055;41.884;12.534;2023-11-19T04:03:53;14.43;;;7.93;;
33413;SDS011;60055;41.884;12.534;2023-11-19T04:06:20;17.55;;;8.10;;
33413;SDS011;60055;41.884;12.534;2023-11-19T04:08:46;13.43;;;7.55;;
33413;SDS011;60055;41.884;12.534;2023-11-19T04:11:11;15.82;;;7.82;;
33413;SDS011;60055;41.884;12.534;2023-11-19T04:13:37;16.20;;;7.50;;
33413;SDS011;60055;41.884;12.534;2023-11-19T04:16:02;14.55;;;7.75;;
33413;SDS011;60055;41.884;12.534;2023-11-19T04:18:29;15.90;;;8.05;;
33413;SDS011;60055;41.884;12.534;2023-11-19T04:20:54;15.57;;;8.23;;
33413;SDS011;60055;41.884;12.534;2023-11-19T04:23:20;13.82;;;8.25;;
33413;SDS011;60055;41.884;12.534;2023-11-19T04:25:45;16.10;;;8.35;;
33413;SDS011;60055;41.884;12.534;2023-11-19T04:28:11;16.10;;;7.60;;
33413;SDS011;60055;41.884;12.534;2023-11-19T04:30:36;12.63;;;7.43;;
33413;SDS011;60055;41.884;12.534;2023-11-19T04:33:02;12.80;;;7.47;;
33413;SDS011;60055;41.884;12.534;2023-11-19T04:35:28;14.23;;;7.25;;
33413;SDS011;60055;41.884;12.534;2023-11-19T04:37:53;14.40;;;7.50;;
33413;SDS011;60055;41.884;12.534;2023-11-19T04:40:22;14.90;;;7.68;;
33413;SDS011;60055;41.884;12.534;2023-11-19T04:42:48;15.30;;;7.50;;
33413;SDS011;60055;41.884;12.534;2023-11-19T04:45:13;15.48;;;7.75;;
33413;SDS011;60055;41.884;12.534;2023-11-19T04:47:39;14.02;;;7.70;;
33413;SDS011;60055;41.884;12.534;2023-11-19T04:50:04;14.75;;;7.05;;
33413;SDS011;60055;41.884;12.534;2023-11-19T04:52:30;12.68;;;7.25;;
33413;SDS011;60055;41.884;12.534;2023-11-19T04:54:55;10.43;;;6.88;;
33413;SDS011;60055;41.884;12.534;2023-11-19T04:57:21;12.32;;;6.85;;
33413;SDS011;60055;41.884;12.534;2023-11-19T04:59:46;12.82;;;6.75;;
33413;SDS011;60055;41.884;12.534;2023-11-19T05:02:12;14.48;;;7.20;;
33413;SDS011;60055;41.884;12.534;2023-11-19T05:04:41;12.65;;;7.15;;
33413;SDS011;60055;41.884;12.534;2023-11-19T05:07:09;12.48;;;6.97;;
33413;SDS011;60055;41.884;12.534;2023-11-19T05:09:34;14.63;;;7.32;;
33413;SDS011;60055;41.884;12.534;2023-11-19T05:12:00;12.90;;;7.60;;
33413;SDS011;60055;41.884;12.534;2023-11-19T05:14:27;14.20;;;7.03;;
33413;SDS011;60055;41.884;12.534;2023-11-19T05:16:53;14.38;;;7.25;;
33413;SDS011;60055;41.884;12.534;2023-11-19T05:19:18;15.48;;;7.88;;
33413;SDS011;60055;41.884;12.534;2023-11-19T05:21:43;13.65;;;7.68;;
33413;SDS011;60055;41.884;12.534;2023-11-19T05:24:09;13.82;;;7.45;;
33413;SDS011;60055;41.884;12.534;2023-11-19T05:26:34;14.73;;;7.82;;
33413;SDS011;60055;41.884;12.534;2023-11-19T05:29:00;13.48;;;8.00;;
33413;SDS011;60055;41.884;12.534;2023-11-19T05:31:25;15.48;;;6.55;;
33413;SDS011;60055;41.884;12.534;2023-11-19T05:33:51;12.98;;;7.35;;
33413;SDS011;60055;41.884;12.534;2023-11-19T05:36:17;15.57;;;7.38;;
33413;SDS011;60055;41.884;12.534;2023-11-19T05:38:42;12.93;;;7.07;;
33413;SDS011;60055;41.884;12.534;2023-11-19T05:41:09;12.02;;;7.05;;
33413;SDS011;60055;41.884;12.534;2023-11-19T05:43:35;15.35;;;7.90;;
33413;SDS011;60055;41.884;12.534;2023-11-19T05:46:00;15.68;;;8.20;;
33413;SDS011;60055;41.884;12.534;2023-11-19T05:48:26;14.63;;;8.23;;
33413;SDS011;60055;41.884;12.534;2023-11-19T05:50:52;17.55;;;8.02;;
33413;SDS011;60055;41.884;12.534;2023-11-19T05:53:18;14.60;;;8.57;;
33413;SDS011;60055;41.884;12.534;2023-11-19T05:55:44;16.30;;;8.90;;
33413;SDS011;60055;41.884;12.534;2023-11-19T05:58:24;15.65;;;8.52;;
33413;SDS011;60055;41.884;12.534;2023-11-19T06:00:51;17.10;;;8.50;;
33413;SDS011;60055;41.884;12.534;2023-11-19T06:03:17;13.82;;;8.93;;
33413;SDS011;60055;41.884;12.534;2023-11-19T06:05:45;16.08;;;9.20;;
33413;SDS011;60055;41.884;12.534;2023-11-19T06:08:11;19.38;;;9.90;;
33413;SDS011;60055;41.884;12.534;2023-11-19T06:10:41;17.92;;;10.68;;
33413;SDS011;60055;41.884;12.534;2023-11-19T06:13:07;23.33;;;12.48;;
33413;SDS011;60055;41.884;12.534;2023-11-19T06:15:35;22.08;;;12.05;;
33413;SDS011;60055;41.884;12.534;2023-11-19T06:18:01;19.42;;;11.13;;
33413;SDS011;60055;41.884;12.534;2023-11-19T06:20:28;21.30;;;11.93;;
33413;SDS011;60055;41.884;12.534;2023-11-19T06:22:55;22.52;;;11.30;;
33413;SDS011;60055;41.884;12.534;2023-11-19T06:25:21;22.35;;;12.25;;
33413;SDS011;60055;41.884;12.534;2023-11-19T06:27:49;22.75;;;12.10;;
33413;SDS011;60055;41.884;12.534;2023-11-19T06:30:14;19.88;;;10.43;;
33413;SDS011;60055;41.884;12.534;2023-11-19T06:32:40;17.05;;;9.45;;
33413;SDS011;60055;41.884;12.534;2023-11-19T06:35:05;15.75;;;8.98;;
33413;SDS011;60055;41.884;12.534;2023-11-19T06:37:31;18.42;;;9.23;;
33413;SDS011;60055;41.884;12.534;2023-11-19T06:39:57;16.25;;;9.05;;
33413;SDS011;60055;41.884;12.534;2023-11-19T06:42:22;15.43;;;9.07;;
33413;SDS011;60055;41.884;12.534;2023-11-19T06:44:47;13.65;;;8.77;;
33413;SDS011;60055;41.884;12.534;2023-11-19T06:47:13;17.70;;;10.05;;
33413;SDS011;60055;41.884;12.534;2023-11-19T06:49:38;15.18;;;9.40;;
33413;SDS011;60055;41.884;12.534;2023-11-19T06:52:04;17.15;;;8.75;;
33413;SDS011;60055;41.884;12.534;2023-11-19T06:54:29;16.20;;;9.35;;
33413;SDS011;60055;41.884;12.534;2023-11-19T06:56:56;16.08;;;8.90;;
33413;SDS011;60055;41.884;12.534;2023-11-19T06:59:22;15.45;;;8.38;;
33413;SDS011;60055;41.884;12.534;2023-11-19T07:01:48;17.50;;;8.13;;
33413;SDS011;60055;41.884;12.534;2023-11-19T07:04:13;17.55;;;8.35;;
33413;SDS011;60055;41.884;12.534;2023-11-19T07:06:39;18.45;;;8.77;;
33413;SDS011;60055;41.884;12.534;2023-11-19T07:09:06;19.80;;;9.25;;
33413;SDS011;60055;41.884;12.534;2023-11-19T07:11:38;15.85;;;9.02;;
33413;SDS011;60055;41.884;12.534;2023-11-19T07:14:04;14.25;;;8.32;;
33413;SDS011;60055;41.884;12.534;2023-11-19T07:16:31;15.20;;;8.95;;
33413;SDS011;60055;41.884;12.534;2023-11-19T07:18:59;16.10;;;8.85;;
33413;SDS011;60055;41.884;12.534;2023-11-19T07:21:25;15.65;;;8.63;;
33413;SDS011;60055;41.884;12.534;2023-11-19T07:23:51;22.15;;;9.40;;
33413;SDS011;60055;41.884;12.534;2023-11-19T07:26:17;15.98;;;9.20;;
33413;SDS011;60055;41.884;12.534;2023-11-19T07:28:42;17.48;;;8.23;;
33413;SDS011;60055;41.884;12.534;2023-11-19T07:31:10;15.50;;;8.30;;
33413;SDS011;60055;41.884;12.534;2023-11-19T07:33:35;15.57;;;8.13;;
33413;SDS011;60055;41.884;12.534;2023-11-19T07:36:01;15.50;;;8.27;;
33413;SDS011;60055;41.884;12.534;2023-11-19T07:38:27;12.77;;;7.85;;
33413;SDS011;60055;41.884;12.534;2023-11-19T07:40:52;14.00;;;8.07;;
33413;SDS011;60055;41.884;12.534;2023-11-19T07:43:18;15.07;;;9.30;;
33413;SDS011;60055;41.884;12.534;2023-11-19T07:45:43;16.92;;;7.82;;
33413;SDS011;60055;41.884;12.534;2023-11-19T07:48:10;16.50;;;8.77;;
33413;SDS011;60055;41.884;12.534;2023-11-19T07:50:38;13.00;;;8.20;;
33413;SDS011;60055;41.884;12.534;2023-11-19T07:53:03;16.45;;;7.65;;
33413;SDS011;60055;41.884;12.534;2023-11-19T07:55:29;14.88;;;7.95;;
33413;SDS011;60055;41.884;12.534;2023-11-19T07:57:55;13.73;;;7.30;;
33413;SDS011;60055;41.884;12.534;2023-11-19T08:00:21;13.80;;;7.07;;
33413;SDS011;60055;41.884;12.534;2023-11-19T08:02:46;19.10;;;7.97;;
33413;SDS011;60055;41.884;12.534;2023-11-19T08:05:12;11.93;;;7.22;;
33413;SDS011;60055;41.884;12.534;2023-11-19T08:07:37;13.70;;;6.90;;
33413;SDS011;60055;41.884;12.534;2023-11-19T08:10:04;11.82;;;7.07;;
33413;SDS011;60055;41.884;12.534;2023-11-19T08:12:30;11.73;;;7.22;;
33413;SDS011;60055;41.884;12.534;2023-11-19T08:14:56;11.43;;;6.65;;
33413;SDS011;60055;41.884;12.534;2023-11-19T08:17:23;10.23;;;6.55;;
33413;SDS011;60055;41.884;12.534;2023-11-19T08:19:49;13.02;;;7.28;;
33413;SDS011;60055;41.884;12.534;2023-11-19T08:22:15;11.95;;;6.85;;
33413;SDS011;60055;41.884;12.534;2023-11-19T08:24:41;14.93;;;7.05;;
33413;SDS011;60055;41.884;12.534;2023-11-19T08:27:08;12.95;;;6.10;;
33413;SDS011;60055;41.884;12.534;2023-11-19T08:29:33;11.48;;;6.22;;
33413;SDS011;60055;41.884;12.534;2023-11-19T08:32:00;13.02;;;6.57;;
33413;SDS011;60055;41.884;12.534;2023-11-19T08:34:28;10.20;;;6.65;;
33413;SDS011;60055;41.884;12.534;2023-11-19T08:36:54;11.80;;;7.13;;
33413;SDS011;60055;41.884;12.534;2023-11-19T08:39:20;15.10;;;6.97;;
33413;SDS011;60055;41.884;12.534;2023-11-19T08:41:47;11.40;;;6.82;;
33413;SDS011;60055;41.884;12.534;2023-11-19T08:44:13;14.82;;;7.00;;
33413;SDS011;60055;41.884;12.534;2023-11-19T08:46:39;11.75;;;6.90;;
33413;SDS011;60055;41.884;12.534;2023-11-19T08:49:05;12.73;;;6.70;;
33413;SDS011;60055;41.884;12.534;2023-11-19T08:51:33;11.23;;;6.57;;
33413;SDS011;60055;41.884;12.534;2023-11-19T08:53:58;11.60;;;6.95;;
33413;SDS011;60055;41.884;12.534;2023-11-19T08:56:24;14.23;;;7.00;;
33413;SDS011;60055;41.884;12.534;2023-11-19T08:58:49;10.13;;;6.28;;
33413;SDS011;60055;41.884;12.534;2023-11-19T09:01:15;11.75;;;6.78;;
33413;SDS011;60055;41.884;12.534;2023-11-19T09:03:40;14.23;;;6.32;;
33413;SDS011;60055;41.884;12.534;2023-11-19T09:06:06;11.23;;;6.57;;
33413;SDS011;60055;41.884;12.534;2023-11-19T09:08:32;11.80;;;6.55;;
33413;SDS011;60055;41.884;12.534;2023-11-19T09:10:57;17.55;;;9.23;;
33413;SDS011;60055;41.884;12.534;2023-11-19T09:13:23;12.57;;;6.40;;
33413;SDS011;60055;41.884;12.534;2023-11-19T09:15:48;11.05;;;6.60;;
33413;SDS011;60055;41.884;12.534;2023-11-19T09:18:14;11.95;;;6.55;;
33413;SDS011;60055;41.884;12.534;2023-11-19T09:20:39;10.40;;;5.95;;
33413;SDS011;60055;41.884;12.534;2023-11-19T09:23:05;12.13;;;6.13;;
33413;SDS011;60055;41.884;12.534;2023-11-19T09:25:31;11.23;;;5.88;;
33413;SDS011;60055;41.884;12.534;2023-11-19T09:27:57;16.65;;;6.30;;
33413;SDS011;60055;41.884;12.534;2023-11-19T09:30:22;10.90;;;6.05;;
33413;SDS011;60055;41.884;12.534;2023-11-19T09:32:48;13.10;;;6.28;;
33413;SDS011;60055;41.884;12.534;2023-11-19T09:35:13;10.48;;;6.20;;
33413;SDS011;60055;41.884;12.534;2023-11-19T09:37:40;12.05;;;6.47;;
33413;SDS011;60055;41.884;12.534;2023-11-19T09:40:06;13.80;;;7.03;;
33413;SDS011;60055;41.884;12.534;2023-11-19T09:42:36;13.80;;;6.65;;
33413;SDS011;60055;41.884;12.534;2023-11-19T09:45:11;10.65;;;5.88;;
33413;SDS011;60055;41.884;12.534;2023-11-19T09:47:39;12.00;;;5.90;;
33413;SDS011;60055;41.884;12.534;2023-11-19T09:50:05;10.18;;;5.70;;
33413;SDS011;60055;41.884;12.534;2023-11-19T09:52:31;9.80;;;6.28;;
33413;SDS011;60055;41.884;12.534;2023-11-19T09:54:56;11.15;;;5.45;;
33413;SDS011;60055;41.884;12.534;2023-11-19T09:57:22;10.27;;;5.82;;
33413;SDS011;60055;41.884;12.534;2023-11-19T09:59:51;15.68;;;6.15;;
33413;SDS011;60055;41.884;12.534;2023-11-19T10:02:18;10.00;;;6.05;;
33413;SDS011;60055;41.884;12.534;2023-11-19T10:04:44;14.07;;;6.57;;
33413;SDS011;60055;41.884;12.534;2023-11-19T10:07:12;13.25;;;6.90;;
33413;SDS011;60055;41.884;12.534;2023-11-19T10:09:37;16.70;;;6.90;;
33413;SDS011;60055;41.884;12.534;2023-11-19T10:12:03;12.38;;;7.82;;
33413;SDS011;60055;41.884;12.534;2023-11-19T10:14:28;36.53;;;21.48;;
33413;SDS011;60055;41.884;12.534;2023-11-19T10:16:56;29.92;;;17.98;;
33413;SDS011;60055;41.884;12.534;2023-11-19T10:19:22;10.32;;;6.82;;
33413;SDS011;60055;41.884;12.534;2023-11-19T10:21:48;16.73;;;6.03;;
33413;SDS011;60055;41.884;12.534;2023-11-19T10:24:13;13.85;;;6.70;;
33413;SDS011;60055;41.884;12.534;2023-11-19T10:26:39;16.63;;;7.00;;
33413;SDS011;60055;41.884;12.534;2023-11-19T10:29:05;12.43;;;5.88;;
33413;SDS011;60055;41.884;12.534;2023-11-19T10:31:31;14.32;;;7.57;;
33413;SDS011;60055;41.884;12.534;2023-11-19T10:33:56;11.82;;;6.38;;
33413;SDS011;60055;41.884;12.534;2023-11-19T10:36:22;13.68;;;6.57;;
33413;SDS011;60055;41.884;12.534;2023-11-19T10:38:55;12.80;;;6.20;;
33413;SDS011;60055;41.884;12.534;2023-11-19T10:41:27;11.68;;;6.13;;
33413;SDS011;60055;41.884;12.534;2023-11-19T10:43:54;15.68;;;6.15;;
33413;SDS011;60055;41.884;12.534;2023-11-19T10:46:19;17.95;;;6.70;;
33413;SDS011;60055;41.884;12.534;2023-11-19T10:48:48;15.45;;;8.07;;
33413;SDS011;60055;41.884;12.534;2023-11-19T10:51:13;13.02;;;6.40;;
33413;SDS011;60055;41.884;12.534;2023-11-19T10:53:48;13.80;;;6.90;;
33413;SDS011;60055;41.884;12.534;2023-11-19T10:56:15;9.48;;;6.03;;
33413;SDS011;60055;41.884;12.534;2023-11-19T10:58:45;10.48;;;6.35;;
33413;SDS011;60055;41.884;12.534;2023-11-19T11:01:16;10.75;;;6.07;;
33413;SDS011;60055;41.884;12.534;2023-11-19T11:03:47;11.50;;;6.50;;
33413;SDS011;60055;41.884;12.534;2023-11-19T11:06:16;11.85;;;6.13;;
33413;SDS011;60055;41.884;12.534;2023-11-19T11:08:43;16.70;;;8.27;;
33413;SDS011;60055;41.884;12.534;2023-11-19T11:11:11;12.55;;;6.35;;
33413;SDS011;60055;41.884;12.534;2023-11-19T11:13:41;15.00;;;6.22;;
33413;SDS011;60055;41.884;12.534;2023-11-19T11:16:07;11.38;;;5.70;;
33413;SDS011;60055;41.884;12.534;2023-11-19T11:18:33;10.13;;;6.10;;
33413;SDS011;60055;41.884;12.534;2023-11-19T11:21:07;12.85;;;6.00;;
33413;SDS011;60055;41.884;12.534;2023-11-19T11:23:40;12.00;;;6.15;;
33413;SDS011;60055;41.884;12.534;2023-11-19T11:28:52;14.55;;;7.10;;
33413;SDS011;60055;41.884;12.534;2023-11-19T11:39:33;13.63;;;7.70;;
33413;SDS011;60055;41.884;12.534;2023-11-19T11:50:17;18.73;;;9.30;;
33413;SDS011;60055;41.884;12.534;2023-11-19T11:55:34;17.10;;;9.10;;
33413;SDS011;60055;41.884;12.534;2023-11-19T11:58:07;20.42;;;12.55;;
33413;SDS011;60055;41.884;12.534;2023-11-19T12:00:37;21.42;;;13.23;;
33413;SDS011;60055;41.884;12.534;2023-11-19T12:03:07;19.70;;;11.18;;
33413;SDS011;60055;41.884;12.534;2023-11-19T12:05:33;16.77;;;10.60;;
33413;SDS011;60055;41.884;12.534;2023-11-19T12:08:04;19.20;;;8.60;;
33413;SDS011;60055;41.884;12.534;2023-11-19T12:10:32;12.40;;;7.35;;
33413;SDS011;60055;41.884;12.534;2023-11-19T12:13:05;14.93;;;7.45;;
33413;SDS011;60055;41.884;12.534;2023-11-19T12:16:07;13.20;;;7.72;;
33413;SDS011;60055;41.884;12.534;2023-11-19T12:18:29;21.05;;;11.82;;
33413;SDS011;60055;41.884;12.534;2023-11-19T12:20:56;16.17;;;7.88;;
33413;SDS011;60055;41.884;12.534;2023-11-19T12:23:22;11.98;;;5.25;;
33413;SDS011;60055;41.884;12.534;2023-11-19T12:25:48;11.45;;;4.80;;
33413;SDS011;60055;41.884;12.534;2023-11-19T12:28:16;15.75;;;4.97;;
33413;SDS011;60055;41.884;12.534;2023-11-19T12:30:42;10.85;;;3.85;;
33413;SDS011;60055;41.884;12.534;2023-11-19T12:33:12;10.10;;;3.63;;
33413;SDS011;60055;41.884;12.534;2023-11-19T12:35:41;11.93;;;4.07;;
33413;SDS011;60055;41.884;12.534;2023-11-19T12:38:19;9.80;;;3.70;;
33413;SDS011;60055;41.884;12.534;2023-11-19T12:41:03;10.30;;;3.92;;
33413;SDS011;60055;41.884;12.534;2023-11-19T12:43:30;8.27;;;3.72;;
33413;SDS011;60055;41.884;12.534;2023-11-19T12:45:56;8.32;;;3.70;;
33413;SDS011;60055;41.884;12.534;2023-11-19T12:48:21;9.57;;;3.15;;
33413;SDS011;60055;41.884;12.534;2023-11-19T12:50:50;10.25;;;3.40;;
33413;SDS011;60055;41.884;12.534;2023-11-19T12:53:19;16.75;;;6.03;;
33413;SDS011;60055;41.884;12.534;2023-11-19T12:55:45;25.27;;;8.40;;
33413;SDS011;60055;41.884;12.534;2023-11-19T12:58:28;14.95;;;6.05;;
33413;SDS011;60055;41.884;12.534;2023-11-19T13:03:33;13.50;;;5.10;;
33413;SDS011;60055;41.884;12.534;2023-11-19T13:08:40;20.75;;;10.88;;
33413;SDS011;60055;41.884;12.534;2023-11-19T13:11:10;16.95;;;6.10;;
33413;SDS011;60055;41.884;12.534;2023-11-19T13:13:56;18.38;;;5.53;;
33413;SDS011;60055;41.884;12.534;2023-11-19T13:16:26;15.90;;;4.20;;
33413;SDS011;60055;41.884;12.534;2023-11-19T13:18:53;15.98;;;3.88;;
33413;SDS011;60055;41.884;12.534;2023-11-19T13:21:19;13.40;;;4.03;;
33413;SDS011;60055;41.884;12.534;2023-11-19T13:23:44;9.73;;;3.97;;
33413;SDS011;60055;41.884;12.534;2023-11-19T13:26:10;14.38;;;5.55;;
33413;SDS011;60055;41.884;12.534;2023-11-19T13:28:36;11.88;;;4.80;;
33413;SDS011;60055;41.884;12.534;2023-11-19T13:31:02;10.63;;;3.15;;
33413;SDS011;60055;41.884;12.534;2023-11-19T13:33:28;8.70;;;3.58;;
33413;SDS011;60055;41.884;12.534;2023-11-19T13:35:54;8.48;;;2.95;;
33413;SDS011;60055;41.884;12.534;2023-11-19T13:38:20;12.18;;;3.90;;
33413;SDS011;60055;41.884;12.534;2023-11-19T13:40:45;11.63;;;5.30;;
33413;SDS011;60055;41.884;12.534;2023-11-19T13:43:11;16.15;;;6.50;;
33413;SDS011;60055;41.884;12.534;2023-11-19T13:45:36;15.02;;;5.07;;
33413;SDS011;60055;41.884;12.534;2023-11-19T13:48:02;10.40;;;4.50;;
33413;SDS011;60055;41.884;12.534;2023-11-19T13:50:28;9.55;;;3.88;;
33413;SDS011;60055;41.884;12.534;2023-11-19T13:52:54;7.90;;;3.40;;
33413;SDS011;60055;41.884;12.534;2023-11-19T13:55:19;8.82;;;3.33;;
33413;SDS011;60055;41.884;12.534;2023-11-19T13:57:45;8.95;;;4.00;;
33413;SDS011;60055;41.884;12.534;2023-11-19T14:00:11;15.68;;;4.93;;
33413;SDS011;60055;41.884;12.534;2023-11-19T14:02:41;18.42;;;7.20;;
33413;SDS011;60055;41.884;12.534;2023-11-19T14:05:08;14.45;;;6.53;;
33413;SDS011;60055;41.884;12.534;2023-11-19T14:07:36;9.95;;;3.90;;
33413;SDS011;60055;41.884;12.534;2023-11-19T14:10:02;14.10;;;4.22;;
33413;SDS011;60055;41.884;12.534;2023-11-19T14:12:28;8.95;;;4.07;;
33413;SDS011;60055;41.884;12.534;2023-11-19T14:14:53;7.72;;;3.55;;
33413;SDS011;60055;41.884;12.534;2023-11-19T14:17:19;8.25;;;3.60;;
33413;SDS011;60055;41.884;12.534;2023-11-19T14:19:45;8.63;;;3.78;;
33413;SDS011;60055;41.884;12.534;2023-11-19T14:22:11;8.70;;;3.78;;
33413;SDS011;60055;41.884;12.534;2023-11-19T14:24:36;9.77;;;3.97;;
33413;SDS011;60055;41.884;12.534;2023-11-19T14:27:02;9.75;;;4.25;;
33413;SDS011;60055;41.884;12.534;2023-11-19T14:29:28;12.45;;;4.20;;
33413;SDS011;60055;41.884;12.534;2023-11-19T14:31:55;10.48;;;4.20;;
33413;SDS011;60055;41.884;12.534;2023-11-19T14:34:20;13.13;;;4.25;;
33413;SDS011;60055;41.884;12.534;2023-11-19T14:36:46;12.15;;;3.80;;
33413;SDS011;60055;41.884;12.534;2023-11-19T14:39:12;12.90;;;4.28;;
33413;SDS011;60055;41.884;12.534;2023-11-19T14:41:38;17.00;;;5.20;;
33413;SDS011;60055;41.884;12.534;2023-11-19T14:44:04;11.68;;;3.83;;
33413;SDS011;60055;41.884;12.534;2023-11-19T14:46:30;9.60;;;3.65;;